createdAt,value
2022-11-23T00:00:03.434Z,-28.4
2022-11-23T00:02:05.491Z,-28.6
2022-11-23T00:04:06.506Z,-28.4
2022-11-23T00:08:09.036Z,-28.4
2022-11-23T00:10:10.263Z,-28.5
2022-11-23T00:12:11.594Z,-28.3
2022-11-23T00:14:13.216Z,-28.3
2022-11-23T00:16:14.480Z,-28.5
2022-11-23T00:20:17.122Z,-28.5
2022-11-23T00:24:19.877Z,-28.3
2022-11-23T00:26:21.376Z,-28.3
2022-11-23T00:28:23.086Z,-28.5
2022-11-23T00:30:24.605Z,-28.2
2022-11-23T00:32:25.702Z,-28.4
2022-11-23T00:34:26.948Z,-28.5
2022-11-23T00:36:28.791Z,-28.3
2022-11-23T00:40:32.193Z,-28.3
2022-11-23T00:42:37.772Z,-28.3
2022-11-23T00:44:34.372Z,-28
2022-11-23T00:46:36.247Z,-28.4
2022-11-23T00:50:39.866Z,-28.5
2022-11-23T00:52:41.527Z,-28.6
2022-11-23T00:54:43.113Z,-28.3
2022-11-23T00:56:45.145Z,-28
2022-11-23T00:58:46.563Z,-28.2
2022-11-23T01:00:48.279Z,-28.5
2022-11-23T01:02:49.372Z,-28.4
2022-11-23T01:04:51.211Z,-28.3
2022-11-23T01:06:52.637Z,-28.3
2022-11-23T01:08:54.348Z,-28.3
2022-11-23T01:10:55.784Z,-28.2
2022-11-23T01:12:57.557Z,-28.6
2022-11-23T01:14:58.917Z,-28.5
2022-11-23T01:17:00.257Z,-28.2
2022-11-23T01:19:01.730Z,-28.6
2022-11-23T01:23:04.591Z,-28.4
2022-11-23T01:25:06.144Z,-28.5
2022-11-23T01:27:07.941Z,-28.5
2022-11-23T01:29:08.978Z,-28.5
2022-11-23T01:35:13.673Z,-28.3
2022-11-23T01:37:15.012Z,-28.4
2022-11-23T01:39:16.486Z,-28.4
2022-11-23T01:41:18.160Z,-28.4
2022-11-23T01:43:19.747Z,-28.5
2022-11-23T01:45:21.241Z,-28.3
2022-11-23T01:47:22.853Z,-28.3
2022-11-23T01:49:24.789Z,-28.3
2022-11-23T01:51:26.077Z,-28.2
2022-11-23T01:53:27.294Z,-28.6
2022-11-23T01:55:28.338Z,-28.4
2022-11-23T01:57:29.548Z,-28.3
2022-11-23T01:59:31.727Z,-28.4
2022-11-23T02:01:32.869Z,-28.4
2022-11-23T02:03:34.374Z,-28.4
2022-11-23T02:05:35.495Z,-28.4
2022-11-23T02:07:36.883Z,-28.3
2022-11-23T02:11:39.475Z,-28.3
2022-11-23T02:13:40.784Z,-28.6
2022-11-23T02:15:41.908Z,-28.3
2022-11-23T02:17:43.156Z,-28.5
2022-11-23T02:19:44.219Z,-28.4
2022-11-23T02:21:45.633Z,-28.5
2022-11-23T02:23:46.736Z,-28.5
2022-11-23T02:25:47.841Z,-28.3
2022-11-23T02:27:48.852Z,-28.4
2022-11-23T02:29:50.611Z,-28.3
2022-11-23T02:31:51.775Z,-28.6
2022-11-23T02:33:52.904Z,-28.4
2022-11-23T02:35:54.759Z,-28.3
2022-11-23T02:37:56.371Z,-28.4
2022-11-23T02:39:57.639Z,-28.6
2022-11-23T02:44:00.625Z,-28.3
2022-11-23T02:46:02.273Z,-28.3
2022-11-23T02:48:03.640Z,-28.3
2022-11-23T02:50:05.411Z,-28.5
2022-11-23T02:52:06.531Z,-28.4
2022-11-23T02:54:08.523Z,-28.5
2022-11-23T02:56:10.360Z,-28.4
2022-11-23T02:58:12.196Z,-28.6
2022-11-23T03:00:13.802Z,-28.5
2022-11-23T03:06:18.815Z,-28.4
2022-11-23T03:08:20.212Z,-28.2
2022-11-23T03:10:21.476Z,-28.5
2022-11-23T03:12:23.398Z,-28.3
2022-11-23T03:14:25.046Z,-28.2
2022-11-23T03:16:26.834Z,-28.5
2022-11-23T03:18:28.736Z,-28.4
2022-11-23T03:20:30.698Z,-28.3
2022-11-23T03:22:32.320Z,-28.4
2022-11-23T03:26:35.321Z,-28.5
2022-11-23T03:28:37.187Z,-28.4
2022-11-23T03:30:38.781Z,-28.4
2022-11-23T03:32:40.694Z,-28.3
2022-11-23T03:34:42.399Z,-28.3
2022-11-23T03:36:43.567Z,-28.3
2022-11-23T03:38:45.180Z,-28.8
2022-11-23T03:40:47.111Z,-28.4
2022-11-23T03:42:48.576Z,-28.3
2022-11-23T03:48:52.834Z,-28.2
2022-11-23T03:50:54.019Z,-28.4
2022-11-23T03:52:55.670Z,-28.4
2022-11-23T03:54:56.875Z,-28.4
2022-11-23T03:56:58.228Z,-28.4
2022-11-23T03:58:59.623Z,-28.6
2022-11-23T04:03:02.574Z,-28.2
2022-11-23T04:05:04.349Z,-28.3
2022-11-23T04:09:08.195Z,-28.5
2022-11-23T04:11:09.402Z,-28.5
2022-11-23T04:13:10.704Z,-28.5
2022-11-23T04:15:12.174Z,-28.5
2022-11-23T04:17:14.203Z,-28.4
2022-11-23T04:19:15.507Z,-28.4
2022-11-23T04:21:17.504Z,-28.4
2022-11-23T04:23:19.440Z,-28.3
2022-11-23T04:25:21.494Z,-28.4
2022-11-23T04:31:26.936Z,-28.6
2022-11-23T04:33:28.011Z,-28.6
2022-11-23T04:35:29.538Z,-28.3
2022-11-23T04:37:31.145Z,-28.2
2022-11-23T04:39:33.154Z,-28.5
2022-11-23T04:41:34.065Z,-28.4
2022-11-23T04:45:37.342Z,-28.4
2022-11-23T04:47:38.694Z,-28.4
2022-11-23T04:48:22.592Z,-28.5
2022-11-23T04:52:25.749Z,-28.2
2022-11-23T04:56:28.716Z,-28.4
2022-11-23T04:58:34.365Z,-28.3
2022-11-23T05:00:31.525Z,-28.3
2022-11-23T05:02:33.257Z,-28.2
2022-11-23T05:06:37.083Z,-28.4
2022-11-23T05:08:38.563Z,-28.4
2022-11-23T05:10:40.582Z,-28.4
2022-11-23T05:12:42.068Z,-28.5
2022-11-23T05:16:44.688Z,-28.3
2022-11-23T05:18:46.430Z,-28.6
2022-11-23T05:22:48.845Z,-28.4
2022-11-23T05:24:50.252Z,-28.5
2022-11-23T05:26:56.019Z,-28.4
2022-11-23T05:28:53.610Z,-28.5
2022-11-23T05:34:57.779Z,-28.4
2022-11-23T05:36:58.975Z,-28.4
2022-11-23T05:39:00.485Z,-28.2
2022-11-23T05:41:02.021Z,-28.2
2022-11-23T05:43:03.972Z,-28.7
2022-11-23T05:45:10.128Z,-28.3
2022-11-23T05:49:08.709Z,-28.5
2022-11-23T05:51:09.903Z,-28.1
2022-11-23T05:53:11.599Z,-28.6
2022-11-23T05:55:13.136Z,-28.4
2022-11-23T05:57:14.750Z,-28.3
2022-11-23T05:59:16.192Z,-28.3
2022-11-23T06:01:17.932Z,-28.2
2022-11-23T06:03:19.871Z,-28.1
2022-11-23T06:05:21.461Z,-28.4
2022-11-23T06:07:23.089Z,-28.3
2022-11-23T06:09:24.734Z,-28.2
2022-11-23T06:11:26.520Z,-28.5
2022-11-23T06:13:28.079Z,-28.5
2022-11-23T06:17:31.639Z,-28.4
2022-11-23T06:21:34.695Z,-28.6
2022-11-23T06:23:36.525Z,-28.3
2022-11-23T06:25:37.551Z,-28.6
2022-11-23T06:27:38.804Z,-28.6
2022-11-23T06:31:42.085Z,-28.1
2022-11-23T06:33:44.086Z,-28.3
2022-11-23T06:35:45.464Z,-28.4
2022-11-23T06:37:47.023Z,-28.7
2022-11-23T06:39:48.020Z,-28.1
2022-11-23T06:41:49.150Z,-28.4
2022-11-23T06:43:50.574Z,-28.2
2022-11-23T06:45:51.630Z,-28.4
2022-11-23T06:47:53.349Z,-28.1
2022-11-23T06:49:55.280Z,-28.6
2022-11-23T06:51:56.610Z,-28.4
2022-11-23T06:53:58.364Z,-28.5
2022-11-23T06:55:59.558Z,-28.6
2022-11-23T06:58:00.565Z,-28.4
2022-11-23T07:00:02.177Z,-28.3
2022-11-23T07:02:03.236Z,-28.5
2022-11-23T07:04:05.222Z,-28.4
2022-11-23T07:06:07.063Z,-28.4
2022-11-23T07:08:08.687Z,-28.6
2022-11-23T07:10:10.284Z,-28.2
2022-11-23T07:16:14.730Z,-28.4
2022-11-23T07:18:15.916Z,-28.4
2022-11-23T07:20:17.552Z,-28.3
2022-11-23T07:22:18.625Z,-28.3
2022-11-23T07:24:20.171Z,-28
2022-11-23T07:26:21.292Z,-28.4
2022-11-23T07:30:29.069Z,-28.1
2022-11-23T07:32:26.558Z,-28.5
2022-11-23T07:34:28.060Z,-28.5
2022-11-23T07:36:29.542Z,-28.4
2022-11-23T07:38:31.229Z,-28.5
2022-11-23T07:40:32.843Z,-28.4
2022-11-23T07:42:37.134Z,-28.4
2022-11-23T07:44:35.610Z,-28.4
2022-11-23T07:46:36.780Z,-28.5
2022-11-23T07:48:38.072Z,-28.6
2022-11-23T07:52:41.458Z,-28.4
2022-11-23T07:54:42.599Z,-28.6
2022-11-23T07:56:44.563Z,-28.3
2022-11-23T07:58:45.787Z,-28.4
2022-11-23T08:00:47.420Z,-28.4
2022-11-23T08:03:11.704Z,-27.6
2022-11-23T08:04:50.005Z,-27.8
2022-11-23T08:06:51.992Z,-27.9
2022-11-23T08:08:53.505Z,-26.6
2022-11-23T08:14:57.199Z,-23.4
2022-11-23T08:16:58.229Z,-22
2022-11-23T08:18:59.919Z,-21.2
2022-11-23T08:21:01.731Z,-20.9
2022-11-23T08:23:02.924Z,-21.7
2022-11-23T08:25:04.310Z,-22.9
2022-11-23T08:29:08.133Z,-22.7
2022-11-23T08:31:09.701Z,-21.4
2022-11-23T08:33:11.354Z,-21.1
2022-11-23T08:35:12.534Z,-21.5
2022-11-23T08:39:16.135Z,-19.6
2022-11-23T08:41:17.195Z,-15.6
2022-11-23T08:45:20.176Z,12.7
2022-11-23T08:47:21.534Z,12.2
2022-11-23T08:49:23.301Z,-13.7
2022-11-23T08:51:25.007Z,13.4
2022-11-23T08:55:27.930Z,-8
2022-11-23T08:57:29.595Z,17.6
2022-11-23T08:59:30.997Z,19.29
2022-11-23T09:01:32.851Z,22.9
2022-11-23T09:05:35.911Z,29.6
2022-11-23T09:07:37.686Z,40.09
2022-11-23T09:11:40.321Z,51.9
2022-11-23T09:13:42.241Z,51.9
2022-11-23T09:15:43.558Z,52.2
2022-11-23T09:17:44.676Z,52.4
2022-11-23T09:23:48.709Z,81.69
2022-11-23T09:25:49.764Z,81.69
2022-11-23T09:27:50.914Z,81.69
2022-11-23T09:29:52.427Z,82
2022-11-23T09:31:53.700Z,82
2022-11-23T09:33:55.520Z,82
2022-11-23T09:35:57.861Z,82.1
2022-11-23T09:37:58.697Z,82.1
2022-11-23T09:40:00.324Z,82.1
2022-11-23T09:42:01.898Z,82.2
2022-11-23T09:44:03.364Z,82.1
2022-11-23T09:46:04.594Z,82
2022-11-23T09:48:06.156Z,82
2022-11-23T09:50:07.756Z,82.2
2022-11-23T09:52:08.769Z,82.3
2022-11-23T09:54:09.901Z,82.3
2022-11-23T09:56:11.441Z,82.1
2022-11-23T09:58:12.309Z,82.1
2022-11-23T10:00:13.415Z,82.2
2022-11-23T10:02:15.142Z,82.2
2022-11-23T10:04:16.858Z,82.1
2022-11-23T10:06:18.431Z,82.3
2022-11-23T10:10:20.869Z,82.3
2022-11-23T10:12:21.834Z,82.3
2022-11-23T10:14:23.003Z,82.3
2022-11-23T10:16:24.013Z,82.2
2022-11-23T10:18:25.584Z,82.2
2022-11-23T10:22:28.424Z,82
2022-11-23T10:24:30.664Z,82
2022-11-23T10:26:31.621Z,82
2022-11-23T10:28:32.954Z,82.1
2022-11-23T10:30:34.095Z,82.2
2022-11-23T10:32:35.444Z,82
2022-11-23T10:36:38.714Z,82.3
2022-11-23T10:38:40.337Z,82.3
2022-11-23T10:40:41.839Z,82
2022-11-23T10:42:44.282Z,82.3
2022-11-23T10:44:46.056Z,82.1
2022-11-23T10:46:47.464Z,81.9
2022-11-23T10:48:49.208Z,82.1
2022-11-23T10:50:50.534Z,82.2
2022-11-23T10:52:51.745Z,82.2
2022-11-23T10:54:53.578Z,82.3
2022-11-23T10:56:54.422Z,82.1
2022-11-23T10:58:55.981Z,82.2
2022-11-23T11:00:57.131Z,82.3
2022-11-23T11:02:58.638Z,82.3
2022-11-23T11:05:00.433Z,82.4
2022-11-23T11:07:02.014Z,82.3
2022-11-23T11:09:05.733Z,82.1
2022-11-23T11:11:05.871Z,82.1
2022-11-23T11:13:07.299Z,82.2
2022-11-23T11:15:11.616Z,82.3
2022-11-23T11:21:11.364Z,82.1
2022-11-23T11:23:12.674Z,82.2
2022-11-23T11:25:13.673Z,82
2022-11-23T11:27:15.051Z,82
2022-11-23T11:29:16.749Z,82.2
2022-11-23T11:31:17.719Z,82.4
2022-11-23T11:34:03.136Z,82.3
2022-11-23T11:36:04.725Z,82.1
2022-11-23T11:42:08.551Z,82.2
2022-11-23T11:44:09.506Z,82.2
2022-11-23T11:46:28.394Z,82.2
2022-11-23T11:48:11.649Z,82.2
2022-11-23T11:50:12.767Z,82.1
2022-11-23T11:52:14.204Z,82
2022-11-23T11:54:16.784Z,81.9
2022-11-23T11:56:18.467Z,81.8
2022-11-23T11:58:19.546Z,82.3
2022-11-23T12:00:21.763Z,82
2022-11-23T12:02:22.901Z,82.3
2022-11-23T12:04:24.639Z,82.1
2022-11-23T12:06:26.850Z,81.8
2022-11-23T12:08:27.083Z,82.1
2022-11-23T12:10:27.981Z,81.9
2022-11-23T12:12:29.957Z,82.1
2022-11-23T12:14:31.150Z,82.1
2022-11-23T12:16:31.898Z,82.2
2022-11-23T12:18:33.414Z,82
2022-11-23T12:20:35.129Z,82
2022-11-23T12:22:36.525Z,82.1
2022-11-23T12:24:37.963Z,81.9
2022-11-23T12:28:41.567Z,82.3
2022-11-23T12:30:42.550Z,82
2022-11-23T12:32:43.539Z,82
2022-11-23T12:34:44.873Z,82
2022-11-23T12:36:45.813Z,82
2022-11-23T12:38:47.117Z,82
2022-11-23T12:40:48.091Z,81.9
2022-11-23T12:42:49.033Z,82.1
2022-11-23T12:44:50.735Z,82.1
2022-11-23T12:46:52.147Z,82.2
2022-11-23T12:48:53.355Z,82
2022-11-23T12:50:54.886Z,-12.1
2022-11-23T12:56:59.224Z,81.9
2022-11-23T12:59:01.476Z,82.1
2022-11-23T13:01:03.044Z,81.8
2022-11-23T13:03:04.552Z,81.8
2022-11-23T13:05:05.850Z,81.8
2022-11-23T13:07:28.740Z,81.6
2022-11-23T13:09:08.182Z,82
2022-11-23T13:11:09.361Z,82.2
2022-11-23T13:13:15.548Z,81.6
2022-11-23T13:17:13.494Z,82.2
2022-11-23T13:19:14.855Z,81.8
2022-11-23T13:21:16.340Z,81.8
2022-11-23T13:23:17.692Z,82.2
2022-11-23T13:27:20.741Z,81.8
2022-11-23T13:29:21.728Z,81.8
2022-11-23T13:31:23.053Z,82.1
2022-11-23T13:33:28.489Z,82.2
2022-11-23T13:35:24.719Z,82
2022-11-23T13:37:26.390Z,82.2
2022-11-23T13:39:27.247Z,82
2022-11-23T13:41:33.183Z,82.1
2022-11-23T13:43:29.447Z,82
2022-11-23T13:45:31.288Z,81.9
2022-11-23T13:47:32.795Z,82.2
2022-11-23T13:49:34.602Z,82
2022-11-23T13:51:35.517Z,82
2022-11-23T13:53:36.927Z,82
2022-11-23T13:55:38.015Z,82.1
2022-11-23T13:57:39.522Z,82.2
2022-11-23T13:59:40.797Z,82.2
2022-11-23T14:01:41.860Z,82.1
2022-11-23T14:03:43.744Z,82.1
2022-11-23T14:05:44.954Z,82.2
2022-11-23T14:09:47.220Z,82.1
2022-11-23T14:11:49.049Z,81.9
2022-11-23T14:13:50.631Z,81.9
2022-11-23T14:15:51.703Z,82.1
2022-11-23T14:21:55.534Z,-28.7
2022-11-23T14:23:57.219Z,-28.7
2022-11-23T14:25:58.204Z,-28.5
2022-11-23T14:27:59.151Z,-28.6
2022-11-23T14:30:00.104Z,-28.4
2022-11-23T14:32:01.196Z,-28.8
2022-11-23T14:38:06.097Z,-28.4
2022-11-23T14:40:07.087Z,-28.5
2022-11-23T14:42:08.844Z,-28.6
2022-11-23T14:44:10.486Z,-28.6
2022-11-23T14:46:11.628Z,-28.6
2022-11-23T14:48:12.936Z,-28.6
2022-11-23T14:50:14.362Z,-28.9
2022-11-23T14:52:16.236Z,-28.8
2022-11-23T14:54:17.724Z,-28.7
2022-11-23T14:58:20.912Z,-28.8
2022-11-23T15:00:22.696Z,-28.5
2022-11-23T15:02:23.913Z,-28.6
2022-11-23T15:04:25.845Z,-28.8
2022-11-23T15:06:27.085Z,-28.9
2022-11-23T15:08:28.742Z,-29
2022-11-23T15:10:30.169Z,-29
2022-11-23T15:12:31.504Z,-28.7
2022-11-23T15:14:32.933Z,-28.8
2022-11-23T15:20:36.852Z,-28.9
2022-11-23T15:22:38.343Z,-28.8
2022-11-23T15:24:39.369Z,-28.7
2022-11-23T15:26:48.284Z,-28.7
2022-11-23T15:28:42.232Z,-28.8
2022-11-23T15:30:43.296Z,-28.9
2022-11-23T15:34:46.977Z,-28.7
2022-11-23T15:36:48.170Z,-28.6
2022-11-23T15:38:49.453Z,-28.7
2022-11-23T15:40:50.427Z,-28.7
2022-11-23T15:46:54.665Z,-28.7
2022-11-23T15:48:55.897Z,-29
2022-11-23T15:50:57.742Z,-28.4
2022-11-23T15:52:59.109Z,-28.8
2022-11-23T15:55:02.220Z,-28.5
2022-11-23T15:57:01.169Z,-28.6
2022-11-23T15:59:02.952Z,-28.8
2022-11-23T16:01:06.896Z,-28.6
2022-11-23T16:03:06.840Z,-28.7
2022-11-23T16:05:08.250Z,-28.9
2022-11-23T16:07:10.078Z,-28.6
2022-11-23T16:09:28.332Z,-28.7
2022-11-23T16:11:12.439Z,-28.6
2022-11-23T16:13:14.176Z,-28.6
2022-11-23T16:15:15.839Z,-28.3
2022-11-23T16:17:17.594Z,-28.5
2022-11-23T16:19:18.935Z,-28.4
2022-11-23T16:21:20.149Z,-28.5
2022-11-23T16:23:22.086Z,-28.4
2022-11-23T16:25:23.226Z,-28.2
2022-11-23T16:29:25.471Z,-28.6
2022-11-23T16:33:28.516Z,-28.5
2022-11-23T16:35:30.013Z,-28.6
2022-11-23T16:37:31.863Z,-28.5
2022-11-23T16:39:32.988Z,-28.6
2022-11-23T16:45:37.361Z,-28.5
2022-11-23T16:47:38.388Z,-28.4
2022-11-23T16:49:39.864Z,-28.5
2022-11-23T16:51:40.977Z,-28.5
2022-11-23T16:54:11.722Z,-28.2
2022-11-23T16:55:44.808Z,-28.4
2022-11-23T16:57:46.429Z,-28.3
2022-11-23T16:59:48.312Z,-28.4
2022-11-23T17:01:54.118Z,-28.2
2022-11-23T17:03:51.759Z,-28.3
2022-11-23T17:05:53.338Z,-28.4
2022-11-23T17:07:55.393Z,-28.4
2022-11-23T17:09:56.351Z,-28.5
2022-11-23T17:11:57.510Z,-28.3
2022-11-23T17:16:01.198Z,-28.3
2022-11-23T17:18:02.737Z,-28.5
2022-11-23T17:20:04.417Z,-28.3
2022-11-23T17:22:05.675Z,-28.3
2022-11-23T17:28:10.836Z,-28.4
2022-11-23T17:30:12.246Z,-28
2022-11-23T17:32:13.514Z,-28.7
2022-11-23T17:34:14.565Z,-28.3
2022-11-23T17:36:15.631Z,-28.4
2022-11-23T17:38:17.372Z,-28.2
2022-11-23T17:40:19.094Z,-28.5
2022-11-23T17:42:21.004Z,-28.2
2022-11-23T17:44:22.453Z,-28.2
2022-11-23T17:46:24.096Z,-28.3
2022-11-23T17:48:25.100Z,-28.4
2022-11-23T17:50:26.535Z,-28.1
2022-11-23T17:52:28.321Z,-28.4
2022-11-23T17:54:29.567Z,-28.3
2022-11-23T17:56:31.573Z,-28.5
2022-11-23T17:58:33.320Z,-28.3
2022-11-23T18:00:35.274Z,-28.5
2022-11-23T18:02:36.917Z,-28.5
2022-11-23T18:04:37.976Z,-28.4
2022-11-23T18:06:39.498Z,-28.4
2022-11-23T18:10:42.269Z,-28.3
2022-11-23T18:12:43.955Z,-28.5
2022-11-23T18:14:45.571Z,-28.4
2022-11-23T18:16:46.690Z,-28.2
2022-11-23T18:18:48.644Z,-28.4
2022-11-23T18:21:33.870Z,-28.4
2022-11-23T18:23:34.959Z,-28.5
2022-11-23T18:25:36.832Z,-28.3
2022-11-23T18:27:38.809Z,-28
2022-11-23T18:29:39.967Z,-28.4
2022-11-23T18:31:41.083Z,-28.4
2022-11-23T18:33:42.115Z,-28.5
2022-11-23T18:35:43.529Z,-28.3
2022-11-23T18:37:45.254Z,-28.5
2022-11-23T18:41:48.207Z,-28.5
2022-11-23T18:43:49.752Z,-28.5
2022-11-23T18:45:51.384Z,-28.5
2022-11-23T18:47:52.896Z,-28.2
2022-11-23T18:49:54.729Z,-28
2022-11-23T18:51:55.721Z,-28.4
2022-11-23T18:53:56.916Z,-28.3
2022-11-23T18:56:00.484Z,-28.6
2022-11-23T18:57:59.318Z,-28.1
2022-11-23T19:02:01.737Z,-28.4
2022-11-23T19:04:03.359Z,-28.4
2022-11-23T19:06:05.084Z,-28.2
2022-11-23T19:08:06.220Z,-28.4
2022-11-23T19:12:08.181Z,-28.4
2022-11-23T19:14:09.568Z,-28.3
2022-11-23T19:16:10.678Z,-28.3
2022-11-23T19:18:12.299Z,-28.2
2022-11-23T19:20:13.195Z,-28.4
2022-11-23T19:22:14.262Z,-28.4
2022-11-23T19:24:15.377Z,-28.2
2022-11-23T19:26:16.675Z,-28.2
2022-11-23T19:28:17.680Z,-28.6
2022-11-23T19:30:18.878Z,-28.1
2022-11-23T19:34:22.052Z,-28.4
2022-11-23T19:36:23.334Z,-28.6
2022-11-23T19:38:25.112Z,-28.4
2022-11-23T19:40:27.081Z,-28.6
2022-11-23T19:46:32.045Z,-28.3
2022-11-23T19:48:33.701Z,-28.3
2022-11-23T19:50:35.512Z,-28.3
2022-11-23T19:54:37.906Z,-28.4
2022-11-23T19:56:39.769Z,-28.6
2022-11-23T20:02:43.458Z,-28.4
2022-11-23T20:04:45.492Z,-28.2
2022-11-23T20:06:47.040Z,-28.5
2022-11-23T20:08:48.142Z,-28.5
2022-11-23T20:10:49.462Z,-28.2
2022-11-23T20:12:51.400Z,-28.5
2022-11-23T20:16:54.350Z,-28.5
2022-11-23T20:18:55.957Z,-28.5
2022-11-23T20:20:57.244Z,-28.3
2022-11-23T20:22:58.586Z,-28.3
2022-11-23T20:25:00.173Z,-28.4
2022-11-23T20:27:02.007Z,-28.4
2022-11-23T20:29:03.223Z,-28.2
2022-11-23T20:31:04.936Z,-28.2
2022-11-23T20:33:06.101Z,-28.3
2022-11-23T20:35:08.073Z,-28.2
2022-11-23T20:37:09.107Z,-28.4
2022-11-23T20:39:10.167Z,-28.3
2022-11-23T20:41:11.741Z,-28.2
2022-11-23T20:43:13.059Z,-28.3
2022-11-23T20:45:14.279Z,-28.3
2022-11-23T20:47:15.935Z,-28.3
2022-11-23T20:49:17.567Z,-28.3
2022-11-23T20:51:18.935Z,-28.6
2022-11-23T20:53:20.698Z,-28.5
2022-11-23T20:55:21.842Z,-28.3
2022-11-23T20:57:23.468Z,-28.2
2022-11-23T21:01:26.664Z,-28.4
2022-11-23T21:03:28.218Z,-28.3
2022-11-23T21:05:29.203Z,-28.5
2022-11-23T21:07:30.848Z,-28.3
2022-11-23T21:09:32.769Z,-28.1
2022-11-23T21:11:34.003Z,-28.5
2022-11-23T21:15:37.043Z,-28.5
2022-11-23T21:17:38.340Z,-28.4
2022-11-23T21:19:39.336Z,-28.4
2022-11-23T21:21:40.837Z,-28.4
2022-11-23T21:23:42.573Z,-28.5
2022-11-23T21:25:44.294Z,-28.3
2022-11-23T21:27:45.420Z,-28.5
2022-11-23T21:29:47.388Z,-28.5
2022-11-23T21:31:48.695Z,-28.5
2022-11-23T21:33:53.834Z,-28.4
2022-11-23T21:37:53.490Z,-28
2022-11-23T21:39:54.598Z,-28.4
2022-11-23T21:41:56.037Z,-28.5
2022-11-23T21:43:57.839Z,-28.5
2022-11-23T21:45:59.281Z,-28.1
2022-11-23T21:48:00.984Z,-28.1
2022-11-23T21:50:02.823Z,-28.2
2022-11-23T21:52:04.401Z,-28.5
2022-11-23T21:54:05.488Z,-28.4
2022-11-23T22:00:09.888Z,-28.3
2022-11-23T22:02:11.869Z,-28.4
2022-11-23T22:04:12.872Z,-28.5
2022-11-23T22:06:20.128Z,-28.4
2022-11-23T22:08:29.109Z,-28.3
2022-11-23T22:10:17.100Z,-28.4
2022-11-23T22:14:19.657Z,-28
2022-11-23T22:16:21.412Z,-28.4
2022-11-23T22:18:22.993Z,-28
2022-11-23T22:20:24.907Z,-28.3
2022-11-23T22:24:27.815Z,-28.4
2022-11-23T22:26:29.214Z,-28.5
2022-11-23T22:28:30.181Z,-28.4
2022-11-23T22:30:31.261Z,-28.4
2022-11-23T22:32:32.410Z,-28.2
2022-11-23T22:34:33.796Z,-28.3
2022-11-23T22:36:35.217Z,-28.4
2022-11-23T22:38:36.615Z,-28.4
2022-11-23T22:40:37.777Z,-28.4
2022-11-23T22:42:39.453Z,-28.4
2022-11-23T22:44:41.149Z,-28.4
2022-11-23T22:46:42.212Z,-28.6
2022-11-23T22:48:43.428Z,-28.5
2022-11-23T22:50:44.822Z,-28.4
2022-11-23T22:52:46.104Z,-28.5
2022-11-23T22:54:47.479Z,-28.4
2022-11-23T22:56:48.880Z,-28.3
2022-11-23T22:58:50.295Z,-28.4
2022-11-23T23:00:51.282Z,-28
2022-11-23T23:02:53.111Z,-28.6
2022-11-23T23:04:54.858Z,-28.3
2022-11-23T23:06:55.946Z,-28.5
2022-11-23T23:08:57.543Z,-28.4
2022-11-23T23:13:01.094Z,-28.3
2022-11-23T23:15:02.416Z,-28.1
2022-11-23T23:17:03.543Z,-28.4
2022-11-23T23:19:04.907Z,-28.5
2022-11-23T23:25:08.803Z,-28.4
2022-11-23T23:27:10.178Z,-28.4
2022-11-23T23:29:12.144Z,-27.9
2022-11-23T23:31:14.230Z,-28.3
2022-11-23T23:33:15.982Z,-28.2
2022-11-23T23:35:17.289Z,-28.5
2022-11-23T23:37:19.026Z,-28.4
2022-11-23T23:39:20.696Z,-28.5
2022-11-23T23:41:22.351Z,-28.4
2022-11-23T23:43:24.098Z,-28.3
2022-11-23T23:45:25.311Z,-28.4
2022-11-23T23:47:27.008Z,-28.3
2022-11-23T23:49:28.427Z,-28.4
2022-11-23T23:51:29.958Z,-28.3
2022-11-23T23:53:31.237Z,-28.5
2022-11-23T23:55:32.462Z,-28.6
2022-11-23T23:57:33.494Z,-28.2
2022-11-23T23:59:35.162Z,-28.3
